Time;durP1;ratioP1;P1;durP2;ratioP2;P2;SDS_P1;SDS_P2;PMS_P1;PMS_P2;Temp;Humidity;BMP_temperature;BMP_pressure;BME280_temperature;BME280_humidity;BME280_pressure;Samples;Min_cycle;Max_cycle;Signal;HPM_P1;HPM_P2
2021/06/08 00:01:42;;;;;;;5.45;4.10;;;;;;;14.32;60.48;98613.28;126200;1092;22864;-79
2021/06/08 00:04:09;;;;;;;9.30;4.77;;;;;;;14.32;60.59;98624.25;126031;1093;22861;-79
2021/06/08 00:06:36;;;;;;;5.35;4.65;;;;;;;14.33;61.41;98618.50;126039;1092;22845;-79
2021/06/08 00:09:03;;;;;;;7.20;4.70;;;;;;;14.31;61.05;98623.43;126027;1092;26271;-79
2021/06/08 00:11:30;;;;;;;10.15;5.25;;;;;;;14.24;62.04;98622.84;125928;1093;22762;-79
2021/06/08 00:13:57;;;;;;;9.30;5.30;;;;;;;14.18;61.90;98621.99;126019;1093;22848;-79
2021/06/08 00:16:25;;;;;;;11.10;5.65;;;;;;;14.15;62.22;98618.95;126248;1093;22929;-79
2021/06/08 00:18:52;;;;;;;5.35;4.80;;;;;;;14.11;61.79;98618.66;126237;1093;25944;-79
2021/06/08 00:21:19;;;;;;;7.55;4.80;;;;;;;14.10;62.34;98627.14;126150;1093;22760;-79
2021/06/08 00:23:46;;;;;;;6.60;4.95;;;;;;;14.03;62.51;98621.88;126106;1093;27310;-79
2021/06/08 00:26:12;;;;;;;6.90;5.00;;;;;;;13.98;63.36;98616.38;126024;1093;22760;-80
2021/06/08 00:28:39;;;;;;;8.55;5.10;;;;;;;13.89;62.80;98615.22;125977;1093;26238;-80
2021/06/08 00:31:06;;;;;;;6.60;4.87;;;;;;;13.81;63.06;98611.88;125969;1092;22828;-80
2021/06/08 00:33:33;;;;;;;7.15;4.85;;;;;;;13.78;62.86;98608.84;126150;1093;22753;-80
2021/06/08 00:36:00;;;;;;;6.40;4.90;;;;;;;13.75;62.79;98615.65;126110;1092;22795;-80
2021/06/08 00:38:27;;;;;;;7.95;4.35;;;;;;;13.75;63.46;98610.17;126258;1093;25867;-80
2021/06/08 00:40:53;;;;;;;8.25;4.85;;;;;;;13.71;63.27;98600.84;126184;1093;22848;-80
2021/06/08 00:43:24;;;;;;;7.27;5.00;;;;;;;13.67;63.23;98613.41;126204;1093;22831;-80
2021/06/08 00:45:53;;;;;;;7.85;5.10;;;;;;;13.62;63.61;98603.24;126059;1093;22754;-80
2021/06/08 00:48:21;;;;;;;6.25;4.68;;;;;;;13.60;63.39;98610.89;126149;1093;24152;-80
2021/06/08 00:50:49;;;;;;;6.97;5.10;;;;;;;13.57;63.53;98603.20;126215;1093;22784;-80
2021/06/08 00:53:16;;;;;;;6.67;4.83;;;;;;;13.53;63.47;98606.70;126236;1093;24441;-80
2021/06/08 00:55:43;;;;;;;6.55;4.60;;;;;;;13.51;63.48;98597.94;126178;1093;22786;-80
2021/06/08 00:58:10;;;;;;;7.50;4.90;;;;;;;13.47;63.80;98582.06;126444;1092;22761;-80
2021/06/08 01:00:37;;;;;;;7.35;4.70;;;;;;;13.46;64.12;98588.61;126054;1093;22834;-80
2021/06/08 01:03:05;;;;;;;5.60;4.35;;;;;;;13.48;63.74;98599.30;125997;1092;26006;-80
2021/06/08 01:05:32;;;;;;;5.93;4.77;;;;;;;13.51;63.66;98600.67;126079;1093;24400;-80
2021/06/08 01:07:58;;;;;;;6.23;4.67;;;;;;;13.50;64.28;98591.65;126202;1093;22922;-80
2021/06/08 01:10:25;;;;;;;5.27;4.77;;;;;;;13.53;63.94;98593.02;126186;1093;26255;-80
2021/06/08 01:12:52;;;;;;;6.90;4.95;;;;;;;13.55;63.72;98597.16;126353;1093;25890;-80
2021/06/08 01:15:21;;;;;;;6.27;4.60;;;;;;;13.58;63.88;98598.54;126399;1093;24402;-80
2021/06/08 01:17:50;;;;;;;8.25;4.50;;;;;;;13.60;63.79;98605.42;126335;1093;27188;-80
2021/06/08 01:20:19;;;;;;;5.65;4.48;;;;;;;13.58;64.44;98604.02;126473;1092;22922;-80
2021/06/08 01:22:46;;;;;;;7.03;4.85;;;;;;;13.47;64.66;98590.27;126510;1092;25842;-80
2021/06/08 01:25:13;;;;;;;6.50;5.40;;;;;;;13.41;64.89;98599.50;126533;1092;27169;-80
2021/06/08 01:27:41;;;;;;;5.40;4.40;;;;;;;13.38;65.29;98602.75;126318;1093;22915;-80
2021/06/08 01:30:09;;;;;;;5.75;4.55;;;;;;;13.36;64.74;98602.19;126349;1093;22794;-80
2021/06/08 01:32:40;;;;;;;8.03;4.90;;;;;;;13.37;65.06;98603.86;126322;1093;22771;-80
2021/06/08 01:35:22;;;;;;;6.20;4.60;;;;;;;13.40;64.33;98600.61;126268;1093;22760;-80
2021/06/08 01:38:04;;;;;;;7.15;4.90;;;;;;;13.43;64.64;98601.98;126366;1093;26385;-80
2021/06/08 01:40:31;;;;;;;7.70;4.60;;;;;;;13.45;64.21;98600.63;126495;1092;27268;-80
2021/06/08 01:42:58;;;;;;;6.83;4.87;;;;;;;13.47;64.48;98603.95;126452;1092;23837;-80
2021/06/08 01:45:25;;;;;;;6.30;5.05;;;;;;;13.48;64.25;98599.30;126466;1093;24562;-80
2021/06/08 01:47:51;;;;;;;4.95;4.40;;;;;;;13.48;64.37;98602.03;126462;1093;22839;-80
2021/06/08 01:50:18;;;;;;;8.83;5.07;;;;;;;13.44;64.21;98600.91;126283;1093;24261;-80
2021/06/08 01:53:26;;;;;;;9.30;5.10;;;;;;;13.42;64.97;98598.44;126565;1093;22857;-80
2021/06/08 01:55:56;;;;;;;5.45;4.20;;;;;;;13.39;64.98;98598.95;126434;1092;22809;-81
2021/06/08 01:58:54;;;;;;;6.25;4.20;;;;;;;13.38;65.37;98599.20;126497;1093;22761;-80
2021/06/08 02:01:47;;;;;;;7.87;4.90;;;;;;;13.22;65.24;98601.75;126578;1092;22866;-81
2021/06/08 02:04:21;;;;;;;;;;;;;;;13.13;65.40;98605.23;126568;1092;22618;-80
2021/06/08 02:07:02;;;;;;;6.90;5.20;;;;;;;13.06;66.21;98597.22;126450;1092;21454;-80
2021/06/08 02:09:38;;;;;;;6.40;4.85;;;;;;;13.00;66.86;98601.81;126557;1093;27355;-80
2021/06/08 02:12:19;;;;;;;5.45;4.80;;;;;;;12.95;67.16;98600.95;126838;1093;22918;-80
2021/06/08 02:15:11;;;;;;;6.20;5.50;;;;;;;12.94;67.03;98608.30;126446;1093;24717;-80
2021/06/08 02:17:49;;;;;;;11.83;5.00;;;;;;;12.88;67.27;98610.16;126634;1093;22771;-80
2021/06/08 02:20:20;;;;;;;7.60;4.60;;;;;;;12.87;68.43;98615.88;126565;1093;22778;-80
2021/06/08 02:22:52;;;;;;;5.50;5.00;;;;;;;12.85;67.73;98607.11;126441;1092;22753;-80
2021/06/08 02:25:24;;;;;;;7.27;5.00;;;;;;;12.84;67.93;98611.76;126379;1092;23332;-80
2021/06/08 02:28:10;;;;;;;8.00;4.85;;;;;;;12.82;68.00;98613.08;126429;1093;25963;-80
2021/06/08 02:30:38;;;;;;;10.47;5.40;;;;;;;12.81;67.55;98617.73;126555;1093;22901;-80
2021/06/08 02:33:06;;;;;;;6.05;4.60;;;;;;;12.82;67.77;98613.92;126437;1093;22784;-80
2021/06/08 02:35:48;;;;;;;6.00;4.80;;;;;;;12.80;67.86;98613.36;126501;1093;22754;-81
2021/06/08 02:38:18;;;;;;;7.97;5.37;;;;;;;12.78;67.91;98612.77;126555;1093;22918;-80
2021/06/08 02:40:46;;;;;;;7.75;4.60;;;;;;;12.76;67.53;98614.12;126458;1092;25877;-80
2021/06/08 02:43:14;;;;;;;7.45;4.78;;;;;;;12.75;68.15;98620.65;126358;1093;22767;-80
2021/06/08 02:45:42;;;;;;;7.00;4.70;;;;;;;12.76;67.89;98612.20;126430;1092;22967;-80
2021/06/08 02:48:10;;;;;;;7.30;4.90;;;;;;;12.77;68.16;98618.52;126508;1092;26245;-79
2021/06/08 02:50:37;;;;;;;7.20;5.20;;;;;;;12.78;68.40;98620.15;126515;1093;22787;-79
2021/06/08 02:53:05;;;;;;;9.40;5.10;;;;;;;12.79;67.53;98616.34;126254;1093;22809;-79
2021/06/08 02:55:34;;;;;;;6.95;5.15;;;;;;;12.78;67.99;98626.43;126406;1091;22845;-79
2021/06/08 02:58:02;;;;;;;10.03;5.20;;;;;;;12.75;67.51;98620.65;126304;1092;22757;-79
2021/06/08 03:00:44;;;;;;;10.65;6.20;;;;;;;12.76;67.36;98627.78;126320;1093;22868;-79
2021/06/08 03:03:16;;;;;;;5.90;5.30;;;;;;;12.77;67.56;98632.18;126563;1092;22834;-80
2021/06/08 03:05:51;;;;;;;9.40;5.60;;;;;;;12.80;68.15;98631.64;126424;1093;22756;-79
2021/06/08 03:08:39;;;;;;;8.90;5.70;;;;;;;12.82;68.11;98637.67;126326;1092;25845;-79
2021/06/08 03:11:11;;;;;;;6.23;5.58;;;;;;;12.81;67.74;98636.04;126337;1093;22837;-79
2021/06/08 03:13:39;;;;;;;11.40;5.43;;;;;;;12.80;67.33;98629.76;126303;1093;22855;-79
2021/06/08 03:16:10;;;;;;;8.20;4.90;;;;;;;12.80;67.62;98637.96;126515;1093;22760;-79
2021/06/08 03:18:39;;;;;;;6.33;5.07;;;;;;;12.80;67.73;98639.84;126545;1093;22763;-79
2021/06/08 03:21:18;;;;;;;9.05;5.25;;;;;;;12.80;67.59;98646.16;126516;1092;22781;-79
2021/06/08 03:23:52;;;;;;;8.50;5.40;;;;;;;12.81;67.40;98649.70;126229;1093;26274;-79
2021/06/08 03:26:22;;;;;;;5.00;4.40;;;;;;;12.83;67.99;98651.09;126632;1091;22806;-79
2021/06/08 03:29:08;;;;;;;9.95;5.10;;;;;;;12.87;67.93;98652.25;126520;1093;22765;-79
2021/06/08 03:31:37;;;;;;;6.20;5.00;;;;;;;12.93;67.80;98657.78;126314;1093;25874;-79
2021/06/08 03:34:05;;;;;;;7.83;5.13;;;;;;;12.99;68.33;98659.48;126151;1093;24438;-79
2021/06/08 03:36:33;;;;;;;6.05;5.10;;;;;;;13.01;67.89;98657.31;126186;1093;22912;-79
2021/06/08 03:39:03;;;;;;;8.77;5.67;;;;;;;13.02;67.79;98656.24;126261;1092;22757;-79
2021/06/08 03:41:30;;;;;;;;;;;;;;;13.00;67.42;98659.23;126304;1093;24438;-80
2021/06/08 03:43:57;;;;;;;7.05;5.50;;;;;;;12.99;67.50;98659.48;126156;1093;21540;-80
2021/06/08 03:46:26;;;;;;;7.70;5.57;;;;;;;12.97;67.47;98653.45;126207;1093;22784;-80
2021/06/08 03:48:57;;;;;;;8.17;5.53;;;;;;;12.98;67.38;98666.02;126248;1093;22758;-80
2021/06/08 03:51:30;;;;;;;7.50;4.93;;;;;;;13.00;67.60;98669.34;126164;1093;22807;-80
2021/06/08 03:53:59;;;;;;;9.90;5.55;;;;;;;13.01;67.77;98660.05;126026;1093;22767;-80
2021/06/08 03:56:28;;;;;;;11.20;5.90;;;;;;;13.04;67.81;98668.56;126213;1093;22916;-80
2021/06/08 03:58:56;;;;;;;11.83;5.83;;;;;;;13.06;68.42;98658.19;126124;1092;24428;-80
2021/06/08 04:01:25;;;;;;;8.10;6.10;;;;;;;13.10;68.52;98658.50;126036;1092;22848;-80
2021/06/08 04:03:52;;;;;;;9.17;6.20;;;;;;;13.13;67.73;98652.53;125984;1093;22939;-80
2021/06/08 04:06:20;;;;;;;15.60;8.60;;;;;;;13.15;68.15;98661.30;125950;1093;22770;-80
2021/06/08 04:08:47;;;;;;;15.15;8.30;;;;;;;13.17;67.95;98647.38;126183;1093;26257;-80
2021/06/08 04:11:18;;;;;;;15.85;8.90;;;;;;;13.21;68.78;98665.75;126063;1093;22808;-80
2021/06/08 04:13:46;;;;;;;15.95;8.45;;;;;;;13.26;68.65;98660.34;126046;1093;22814;-80
2021/06/08 04:16:13;;;;;;;14.00;8.75;;;;;;;13.33;68.60;98660.14;126189;1093;22926;-80
2021/06/08 04:18:55;;;;;;;13.00;8.60;;;;;;;13.38;68.26;98657.46;126038;1093;22768;-80
2021/06/08 04:21:27;;;;;;;17.40;9.03;;;;;;;13.43;68.43;98657.52;126285;1093;22809;-80
2021/06/08 04:23:59;;;;;;;10.47;8.30;;;;;;;13.47;68.03;98664.14;125989;1093;22760;-80
2021/06/08 04:26:28;;;;;;;9.40;7.60;;;;;;;13.51;67.84;98658.13;126054;1093;27179;-80
2021/06/08 04:28:56;;;;;;;14.05;8.55;;;;;;;13.52;68.14;98662.53;126252;1093;26235;-80
2021/06/08 04:31:24;;;;;;;11.40;8.00;;;;;;;13.58;68.53;98662.33;126188;1093;22778;-80
2021/06/08 04:33:51;;;;;;;12.25;8.00;;;;;;;13.63;68.30;98659.64;126141;1093;22817;-80
2021/06/08 04:36:20;;;;;;;10.20;7.40;;;;;;;13.68;68.34;98665.13;126212;1093;25925;-80
2021/06/08 04:38:47;;;;;;;9.85;7.35;;;;;;;13.74;68.24;98656.97;126229;1093;26076;-80
2021/06/08 04:41:14;;;;;;;10.87;7.63;;;;;;;13.80;68.36;98664.97;126192;1092;22762;-80
2021/06/08 04:43:42;;;;;;;18.30;8.70;;;;;;;13.87;68.08;98656.54;126193;1093;22756;-80
2021/06/08 04:46:12;;;;;;;16.65;8.60;;;;;;;13.92;68.39;98662.06;126068;1093;26318;-80
2021/06/08 04:48:41;;;;;;;14.30;8.80;;;;;;;13.96;68.28;98659.63;126214;1093;22812;-80
2021/06/08 04:51:09;;;;;;;11.28;7.33;;;;;;;14.01;68.28;98663.22;126081;1093;26274;-80
2021/06/08 04:53:37;;;;;;;11.95;8.15;;;;;;;14.06;68.42;98659.70;126275;1093;22787;-80
2021/06/08 04:56:06;;;;;;;12.90;7.55;;;;;;;14.13;67.98;98664.93;126152;1093;26070;-80
2021/06/08 04:58:33;;;;;;;;;;;;;;;14.19;68.01;98667.45;126181;1093;22913;-80
2021/06/08 05:01:24;;;;;;;11.65;7.70;;;;;;;14.27;68.25;98670.78;126379;1092;21527;-80
2021/06/08 05:03:59;;;;;;;14.20;8.10;;;;;;;14.35;68.05;98667.55;126682;1092;26242;-80
2021/06/08 05:06:34;;;;;;;12.50;7.70;;;;;;;14.43;67.65;98669.81;126416;1093;22903;-80
2021/06/08 05:09:04;;;;;;;16.50;8.30;;;;;;;14.51;67.27;98672.03;126586;1092;26060;-80
2021/06/08 05:11:40;;;;;;;11.83;8.73;;;;;;;14.58;67.58;98672.64;126488;1092;27224;-80
2021/06/08 05:14:10;;;;;;;14.60;8.30;;;;;;;14.67;67.08;98674.89;126582;1093;25868;-80
2021/06/08 05:16:40;;;;;;;12.75;8.50;;;;;;;14.73;66.99;98677.40;126430;1093;22778;-80
2021/06/08 05:19:09;;;;;;;9.95;8.50;;;;;;;14.80;66.64;98668.91;126643;1092;24676;-80
2021/06/08 05:21:37;;;;;;;14.65;9.38;;;;;;;14.85;66.81;98671.67;126521;1093;22765;-79
2021/06/08 05:24:09;;;;;;;14.65;9.00;;;;;;;14.94;66.59;98667.34;126327;1093;22770;-79
2021/06/08 05:26:44;;;;;;;14.05;9.70;;;;;;;15.03;66.54;98675.03;126330;1092;22853;-79
2021/06/08 05:29:16;;;;;;;15.20;10.60;;;;;;;15.14;66.50;98674.81;126520;1093;23303;-79
2021/06/08 05:31:43;;;;;;;15.15;10.40;;;;;;;15.25;66.29;98678.41;126603;1093;22887;-79
2021/06/08 05:34:09;;;;;;;20.55;10.75;;;;;;;15.35;66.49;98675.70;126139;1093;22783;-79
2021/06/08 05:36:38;;;;;;;16.73;11.60;;;;;;;15.44;66.55;98672.40;126304;1093;24280;-79
2021/06/08 05:39:07;;;;;;;18.33;11.43;;;;;;;15.51;66.43;98671.06;126393;1092;22937;-79
2021/06/08 05:41:35;;;;;;;15.53;11.88;;;;;;;15.61;66.53;98664.74;126529;1093;22816;-79
2021/06/08 05:44:02;;;;;;;21.80;12.43;;;;;;;15.70;66.73;98665.03;126722;1093;22746;-79
2021/06/08 05:46:36;;;;;;;18.30;11.30;;;;;;;15.80;66.89;98664.25;126490;1093;24395;-79
2021/06/08 05:49:08;;;;;;;17.50;11.45;;;;;;;15.92;66.55;98670.30;126301;1093;22905;-79
2021/06/08 05:51:38;;;;;;;16.97;11.50;;;;;;;16.05;66.68;98666.16;126438;1093;22765;-79
2021/06/08 05:54:08;;;;;;;23.93;13.15;;;;;;;16.18;66.70;98670.27;126584;1093;23617;-79
2021/06/08 05:56:37;;;;;;;20.17;12.77;;;;;;;16.30;66.45;98662.55;126951;1092;25057;-79
2021/06/08 05:59:04;;;;;;;17.65;12.45;;;;;;;16.41;66.33;98663.36;128029;1093;23318;-79
2021/06/08 06:01:31;;;;;;;18.70;13.10;;;;;;;16.51;66.13;98661.41;128006;1093;22823;-80
2021/06/08 06:03:59;;;;;;;19.77;13.20;;;;;;;16.64;66.02;98667.42;127910;1093;22749;-80
2021/06/08 06:06:26;;;;;;;18.00;12.13;;;;;;;16.76;66.07;98669.87;128133;1092;22786;-80
2021/06/08 06:08:55;;;;;;;21.30;12.68;;;;;;;16.87;66.05;98666.84;128138;1092;22762;-80
2021/06/08 06:11:23;;;;;;;20.67;12.73;;;;;;;17.01;65.87;98667.03;127901;1093;23949;-79
2021/06/08 06:13:59;;;;;;;17.30;11.73;;;;;;;17.15;65.78;98661.73;128319;1093;24246;-80
2021/06/08 06:16:37;;;;;;;21.58;12.10;;;;;;;17.32;65.11;98666.89;128176;1092;28657;-79
2021/06/08 06:19:25;;;;;;;21.43;11.35;;;;;;;17.50;65.23;98662.64;127874;1093;22769;-80
2021/06/08 06:21:56;;;;;;;19.40;12.10;;;;;;;17.65;65.17;98658.95;127896;1093;22760;-79
2021/06/08 06:24:26;;;;;;;18.63;12.00;;;;;;;17.80;64.70;98663.54;127853;1093;22844;-79
2021/06/08 06:26:55;;;;;;;18.93;11.00;;;;;;;17.93;64.85;98660.14;127832;1092;23324;-79
2021/06/08 06:29:22;;;;;;;17.78;11.75;;;;;;;18.07;64.69;98660.30;128104;1093;23292;-79
2021/06/08 06:32:03;;;;;;;19.95;13.75;;;;;;;18.19;64.02;98663.50;127882;1093;22776;-79
2021/06/08 06:34:30;;;;;;;18.43;12.13;;;;;;;18.33;64.15;98666.40;128177;1093;22860;-79
2021/06/08 06:36:59;;;;;;;18.95;12.48;;;;;;;18.46;63.67;98664.88;127806;1093;23340;-79
2021/06/08 06:39:30;;;;;;;22.25;11.75;;;;;;;18.56;63.10;98656.50;128310;1092;23601;-79
2021/06/08 06:42:01;;;;;;;18.55;11.68;;;;;;;18.70;63.11;98659.39;127875;1093;26279;-79
2021/06/08 06:44:43;;;;;;;15.03;11.10;;;;;;;18.83;62.08;98651.55;127900;1093;23330;-79
2021/06/08 06:47:25;;;;;;;16.65;12.48;;;;;;;18.95;62.38;98654.72;128145;1092;22765;-79
2021/06/08 06:49:52;;;;;;;19.68;12.48;;;;;;;19.06;61.85;98655.41;128162;1092;23588;-79
2021/06/08 06:52:19;;;;;;;20.95;12.75;;;;;;;19.18;61.53;98657.73;127843;1093;22767;-79
2021/06/08 06:54:46;;;;;;;16.65;12.18;;;;;;;19.29;61.53;98660.05;127867;1092;23026;-79
2021/06/08 06:57:14;;;;;;;20.20;12.23;;;;;;;19.41;61.71;98651.33;128119;1092;26689;-79
2021/06/08 06:59:41;;;;;;;24.18;13.18;;;;;;;19.54;61.52;98652.52;126651;1093;22760;-79
2021/06/08 07:02:12;;;;;;;18.48;12.25;;;;;;;19.65;61.07;98651.22;126140;1093;22792;-80
2021/06/08 07:04:41;;;;;;;19.05;12.93;;;;;;;19.77;61.04;98645.27;126208;1092;22778;-80
2021/06/08 07:07:10;;;;;;;18.28;12.68;;;;;;;19.88;61.16;98646.77;126193;1093;24402;-80
2021/06/08 07:09:37;;;;;;;20.52;12.50;;;;;;;20.02;61.04;98657.03;126205;1093;22775;-80
2021/06/08 07:12:21;;;;;;;18.90;12.48;;;;;;;20.15;60.73;98659.03;126162;1093;27573;-80
2021/06/08 07:14:50;;;;;;;21.77;12.85;;;;;;;20.25;60.08;98656.06;126229;1093;22810;-80
2021/06/08 07:17:21;;;;;;;25.00;12.23;;;;;;;20.36;59.98;98655.88;126142;1093;22802;-80
2021/06/08 07:19:52;;;;;;;21.60;12.95;;;;;;;20.45;59.38;98643.81;126275;1093;25892;-80
2021/06/08 07:22:19;;;;;;;17.88;11.63;;;;;;;20.58;59.16;98653.25;126175;1092;22912;-80
2021/06/08 07:24:47;;;;;;;21.28;11.68;;;;;;;20.70;59.04;98649.17;126061;1093;24403;-80
2021/06/08 07:27:14;;;;;;;17.60;12.10;;;;;;;20.83;58.47;98645.60;126189;1093;22754;-80
2021/06/08 07:29:43;;;;;;;15.23;11.00;;;;;;;20.94;58.64;98651.74;126175;1093;22732;-80
2021/06/08 07:32:36;;;;;;;13.48;11.20;;;;;;;21.06;57.65;98646.50;126084;1093;22778;-80
2021/06/08 07:35:31;;;;;;;15.65;10.25;;;;;;;21.22;56.34;98644.22;126175;1091;22784;-80
2021/06/08 07:38:07;;;;;;;15.28;9.48;;;;;;;21.37;55.85;98654.97;126139;1093;27151;-80
2021/06/08 07:40:49;;;;;;;14.45;10.63;;;;;;;21.51;56.07;98646.63;126230;1093;22767;-80
2021/06/08 07:43:22;;;;;;;14.20;9.88;;;;;;;21.67;55.42;98647.08;126267;1093;26232;-80
2021/06/08 07:45:51;;;;;;;13.93;9.30;;;;;;;21.83;54.94;98644.76;126190;1093;22754;-80
2021/06/08 07:48:25;;;;;;;14.65;9.80;;;;;;;21.99;54.35;98648.81;126194;1093;22757;-80
2021/06/08 07:50:55;;;;;;;13.13;9.10;;;;;;;22.15;53.81;98654.79;126156;1093;22912;-80
2021/06/08 07:53:28;;;;;;;12.65;8.48;;;;;;;22.33;53.46;98649.38;126218;1093;22754;-80
2021/06/08 07:55:56;;;;;;;12.95;8.38;;;;;;;22.48;52.91;98648.94;126062;1093;26273;-80
2021/06/08 07:58:24;;;;;;;14.85;8.60;;;;;;;22.66;52.77;98646.25;126046;1093;24437;-80
2021/06/08 08:00:56;;;;;;;11.78;8.33;;;;;;;22.82;51.49;98647.44;126157;1093;22854;-80
2021/06/08 08:03:28;;;;;;;15.25;8.40;;;;;;;23.01;50.55;98651.92;126184;1093;22785;-80
2021/06/08 08:06:01;;;;;;;9.48;7.03;;;;;;;23.22;49.77;98650.20;125999;1093;27143;-80
2021/06/08 08:08:31;;;;;;;11.65;8.28;;;;;;;23.41;49.03;98643.52;126289;1093;22784;-80
2021/06/08 08:11:16;;;;;;;11.65;7.58;;;;;;;23.61;48.10;98648.44;126223;1092;22754;-80
2021/06/08 08:13:58;;;;;;;14.75;7.10;;;;;;;23.81;47.50;98640.61;126277;1093;26430;-80
2021/06/08 08:16:26;;;;;;;8.50;6.15;;;;;;;24.01;46.86;98642.73;126436;1092;26321;-80
2021/06/08 08:18:53;;;;;;;9.70;5.58;;;;;;;24.24;45.51;98643.34;126255;1093;26248;-81
2021/06/08 08:21:21;;;;;;;8.78;5.63;;;;;;;24.44;44.79;98639.02;126324;1093;22792;-80
2021/06/08 08:24:02;;;;;;;8.78;6.18;;;;;;;24.67;44.12;98638.80;126306;1093;22755;-81
2021/06/08 08:26:29;;;;;;;11.05;6.90;;;;;;;24.88;44.01;98632.45;126462;1093;22759;-80
2021/06/08 08:28:59;;;;;;;13.25;6.30;;;;;;;25.12;43.54;98629.86;126385;1093;27539;-80
2021/06/08 08:31:28;;;;;;;6.55;5.10;;;;;;;25.35;41.53;98630.39;126410;1093;27178;-80
2021/06/08 08:33:56;;;;;;;9.40;5.58;;;;;;;25.61;40.46;98626.59;126094;1093;22826;-80
2021/06/08 08:36:27;;;;;;;6.43;4.93;;;;;;;25.84;39.61;98629.84;126481;1093;22613;-80
2021/06/08 08:38:55;;;;;;;5.07;3.77;;;;;;;25.84;36.69;98626.24;126290;1092;26299;-80
2021/06/08 08:41:23;;;;;;;8.50;4.40;;;;;;;25.75;36.88;98631.90;126302;1093;22757;-80
2021/06/08 08:43:51;;;;;;;6.90;4.23;;;;;;;25.75;37.75;98634.69;126089;1093;22778;-80
2021/06/08 08:46:20;;;;;;;4.48;3.83;;;;;;;25.82;37.29;98629.38;126221;1093;22851;-81
2021/06/08 08:48:53;;;;;;;4.93;4.43;;;;;;;26.00;37.01;98621.67;126286;1092;22758;-80
2021/06/08 08:51:25;;;;;;;10.08;4.20;;;;;;;26.12;36.16;98632.88;126222;1092;22805;-81
2021/06/08 08:54:00;;;;;;;6.70;4.05;;;;;;;26.28;36.43;98633.04;126132;1093;22760;-81
2021/06/08 08:56:33;;;;;;;9.50;4.53;;;;;;;26.46;35.40;98633.65;126102;1093;24650;-81
2021/06/08 08:59:16;;;;;;;8.60;4.38;;;;;;;26.65;34.93;98627.55;126379;1093;27396;-81
2021/06/08 09:01:46;;;;;;;6.13;3.93;;;;;;;26.86;35.11;98627.44;126324;1093;22784;-80
2021/06/08 09:04:15;;;;;;;5.83;3.30;;;;;;;26.89;34.07;98631.50;126305;1093;24559;-81
2021/06/08 09:06:42;;;;;;;;;;;;;;;26.68;35.71;98628.81;126274;1093;22805;-81
2021/06/08 09:09:12;;;;;;;6.93;3.20;;;;;;;26.20;34.88;98633.94;126237;1093;21454;-81
2021/06/08 09:11:43;;;;;;;5.90;3.20;;;;;;;25.77;34.51;98629.58;126179;1093;22788;-81
2021/06/08 09:14:15;;;;;;;5.23;2.80;;;;;;;25.41;33.94;98628.23;126138;1093;22919;-81
2021/06/08 09:16:52;;;;;;;4.73;2.60;;;;;;;25.17;33.28;98635.23;126191;1093;26353;-81
2021/06/08 09:19:22;;;;;;;3.78;2.53;;;;;;;25.12;33.76;98626.27;126061;1093;22799;-81
2021/06/08 09:21:56;;;;;;;3.78;2.35;;;;;;;25.26;34.41;98626.85;126296;1093;22757;-81
2021/06/08 09:24:27;;;;;;;3.43;2.68;;;;;;;25.53;32.64;98625.52;126038;1093;22809;-81
2021/06/08 09:27:09;;;;;;;5.13;2.35;;;;;;;25.80;30.68;98616.91;126124;1093;22783;-80
2021/06/08 09:29:54;;;;;;;3.80;2.68;;;;;;;26.14;32.60;98622.18;126301;1092;22805;-81
2021/06/08 09:32:26;;;;;;;3.78;2.78;;;;;;;26.48;30.61;98617.36;126053;1093;22854;-81
2021/06/08 09:34:56;;;;;;;3.00;2.80;;;;;;;26.66;29.91;98619.97;126071;1093;24469;-81
2021/06/08 09:37:37;;;;;;;5.20;2.33;;;;;;;26.78;29.59;98616.38;126384;1093;25832;-81
2021/06/08 09:40:27;;;;;;;3.37;2.33;;;;;;;27.12;29.15;98614.25;126114;1093;22800;-81
2021/06/08 09:43:09;;;;;;;2.50;2.30;;;;;;;27.22;28.90;98617.38;126380;1091;26235;-81
2021/06/08 09:45:52;;;;;;;3.50;2.35;;;;;;;27.28;27.86;98615.18;126179;1093;24606;-81
2021/06/08 09:48:21;;;;;;;3.63;2.58;;;;;;;27.34;27.20;98612.95;126052;1093;25951;-81
2021/06/08 09:50:49;;;;;;;2.53;2.28;;;;;;;27.47;27.97;98617.36;126220;1093;22837;-81
2021/06/08 09:53:22;;;;;;;3.33;2.65;;;;;;;27.61;25.84;98614.98;126241;1093;22735;-81
2021/06/08 09:56:05;;;;;;;3.00;2.60;;;;;;;27.75;27.59;98611.78;126086;1093;22816;-81
2021/06/08 09:58:34;;;;;;;3.08;2.68;;;;;;;27.85;26.41;98610.45;126038;1093;22778;-81
2021/06/08 10:01:06;;;;;;;4.20;2.63;;;;;;;27.76;27.44;98605.00;126101;1093;22788;-81
2021/06/08 10:03:37;;;;;;;3.13;2.73;;;;;;;27.60;30.09;98615.33;126004;1093;27412;-81
2021/06/08 10:06:06;;;;;;;3.88;2.80;;;;;;;27.30;28.80;98609.23;126170;1093;22864;-81
2021/06/08 10:08:33;;;;;;;12.98;3.58;;;;;;;26.91;29.07;98615.19;126013;1093;24409;-81
2021/06/08 10:11:03;;;;;;;3.75;3.25;;;;;;;26.62;29.33;98613.46;126001;1093;22922;-81
2021/06/08 10:13:30;;;;;;;8.60;4.00;;;;;;;26.45;31.15;98611.66;126170;1092;22855;-81
2021/06/08 10:16:07;;;;;;;5.13;3.00;;;;;;;26.63;30.27;98615.91;126276;1093;22841;-81
2021/06/08 10:18:50;;;;;;;5.28;3.05;;;;;;;26.92;30.59;98604.84;126244;1093;22757;-81
2021/06/08 10:21:52;;;;;;;4.88;2.75;;;;;;;27.18;29.02;98602.48;126283;1093;22757;-81
2021/06/08 10:24:30;;;;;;;8.20;3.00;;;;;;;27.43;28.38;98608.86;126186;1093;25977;-81
2021/06/08 10:26:59;;;;;;;14.37;3.23;;;;;;;27.67;27.74;98604.34;126206;1092;23707;-81
2021/06/08 10:29:41;;;;;;;6.20;2.80;;;;;;;27.91;28.70;98597.88;126066;1093;23345;-81
2021/06/08 10:32:08;;;;;;;6.10;2.90;;;;;;;28.26;28.85;98597.22;126485;1093;26261;-81
2021/06/08 10:34:37;;;;;;;4.90;2.70;;;;;;;28.51;27.48;98595.05;126393;1092;22784;-81
2021/06/08 10:37:04;;;;;;;3.90;3.40;;;;;;;28.70;27.32;98597.17;126226;1092;22759;-81
2021/06/08 10:39:34;;;;;;;3.63;2.53;;;;;;;28.95;27.03;98600.56;126277;1093;22758;-81
2021/06/08 10:42:16;;;;;;;3.63;2.63;;;;;;;28.95;25.93;98600.56;126057;1093;22762;-82
2021/06/08 10:44:43;;;;;;;3.73;2.75;;;;;;;28.82;25.98;98593.42;126309;1093;23290;-81
2021/06/08 10:47:34;;;;;;;4.60;2.83;;;;;;;28.57;28.34;98590.83;126123;1093;22908;-81
2021/06/08 10:50:25;;;;;;;5.68;3.20;;;;;;;28.39;27.50;98589.54;126155;1093;24441;-81
2021/06/08 10:52:56;;;;;;;6.95;3.30;;;;;;;28.22;28.35;98585.09;126124;1092;22925;-81
2021/06/08 10:55:36;;;;;;;6.40;3.17;;;;;;;28.08;28.47;98599.52;126272;1093;22802;-81
2021/06/08 10:58:04;;;;;;;6.53;3.15;;;;;;;27.77;29.79;98592.65;126316;1093;24521;-82
2021/06/08 11:00:31;;;;;;;14.25;3.43;;;;;;;27.37;29.35;98601.06;126360;1093;26239;-81
2021/06/08 11:03:02;;;;;;;3.90;2.93;;;;;;;27.05;29.62;98595.27;126177;1093;22754;-81
2021/06/08 11:05:55;;;;;;;8.40;3.08;;;;;;;26.84;30.63;98598.20;126110;1093;27163;-81
2021/06/08 11:09:00;;;;;;;4.75;3.58;;;;;;;26.68;31.16;98595.29;126118;1093;22842;-81
2021/06/08 11:12:08;;;;;;;4.53;3.08;;;;;;;26.69;31.37;98603.33;126297;1093;22754;-81
2021/06/08 11:14:56;;;;;;;4.48;2.88;;;;;;;26.63;31.97;98595.52;126117;1093;26937;-81
2021/06/08 11:17:52;;;;;;;6.68;3.08;;;;;;;26.56;33.46;98596.09;126358;1093;23199;-82
2021/06/08 11:20:34;;;;;;;10.08;3.13;;;;;;;26.78;33.97;98594.83;126290;1093;22787;-81
2021/06/08 11:23:01;;;;;;;7.95;3.33;;;;;;;26.79;32.45;98584.45;126187;1093;22810;-81
2021/06/08 11:25:53;;;;;;;3.73;3.25;;;;;;;26.92;32.39;98588.89;126060;1093;22781;-81
2021/06/08 11:28:20;;;;;;;3.35;2.60;;;;;;;27.34;32.16;98579.39;126214;1093;24749;-81
2021/06/08 11:30:57;;;;;;;5.60;2.90;;;;;;;27.62;30.76;98587.81;126152;1092;22762;-81
2021/06/08 11:33:31;;;;;;;4.10;2.98;;;;;;;27.83;28.93;98579.20;126178;1093;27188;-81
2021/06/08 11:36:01;;;;;;;3.68;2.70;;;;;;;27.89;29.65;98579.76;126237;1093;22750;-81
2021/06/08 11:38:36;;;;;;;3.00;2.80;;;;;;;27.94;28.75;98577.57;126055;1093;25618;-81
2021/06/08 11:41:06;;;;;;;3.67;3.37;;;;;;;27.95;30.20;98569.98;126046;1093;22788;-82
2021/06/08 11:43:32;;;;;;;12.50;3.50;;;;;;;28.11;28.48;98570.80;126207;1093;26239;-81
2021/06/08 11:46:12;;;;;;;4.58;2.70;;;;;;;28.20;28.28;98571.44;126220;1093;22795;-81